sensor_id;sensor_type;location;lat;lon;timestamp;pressure;altitude;pressure_sealevel;temperature
48362;BMP280;34510;51.888;5.670;2023-05-10T00:02:01;100695.88;;;16.44
48362;BMP280;34510;51.888;5.670;2023-05-10T00:07:07;100690.16;;;16.51
48362;BMP280;34510;51.888;5.670;2023-05-10T00:12:09;100690.41;;;16.38
48362;BMP280;34510;51.888;5.670;2023-05-10T00:17:12;100679.22;;;16.38
48362;BMP280;34510;51.888;5.670;2023-05-10T00:22:14;100677.03;;;16.40
48362;BMP280;34510;51.888;5.670;2023-05-10T00:27:16;100662.66;;;16.25
48362;BMP280;34510;51.888;5.670;2023-05-10T00:32:19;100676.66;;;16.36
48362;BMP280;34510;51.888;5.670;2023-05-10T00:37:23;100657.44;;;16.05
48362;BMP280;34510;51.888;5.670;2023-05-10T00:42:25;100659.00;;;16.12
48362;BMP280;34510;51.888;5.670;2023-05-10T00:47:29;100655.38;;;16.12
48362;BMP280;34510;51.888;5.670;2023-05-10T00:52:31;100653.78;;;16.16
48362;BMP280;34510;51.888;5.670;2023-05-10T00:57:34;100651.97;;;16.22
48362;BMP280;34510;51.888;5.670;2023-05-10T01:02:37;100651.97;;;16.10
48362;BMP280;34510;51.888;5.670;2023-05-10T01:07:40;100638.34;;;16.13
48362;BMP280;34510;51.888;5.670;2023-05-10T01:12:45;100645.16;;;16.17
48362;BMP280;34510;51.888;5.670;2023-05-10T01:17:49;100654.16;;;16.31
48362;BMP280;34510;51.888;5.670;2023-05-10T01:33:52;100666.22;;;16.32
48362;BMP280;34510;51.888;5.670;2023-05-10T01:39:13;100660.00;;;16.18
48362;BMP280;34510;51.888;5.670;2023-05-10T01:49:52;100668.41;;;16.30
48362;BMP280;34510;51.888;5.670;2023-05-10T01:55:01;100686.47;;;16.62
48362;BMP280;34510;51.888;5.670;2023-05-10T02:00:25;100692.31;;;16.61
48362;BMP280;34510;51.888;5.670;2023-05-10T02:05:29;100689.94;;;16.29
48362;BMP280;34510;51.888;5.670;2023-05-10T02:10:34;100691.50;;;16.13
48362;BMP280;34510;51.888;5.670;2023-05-10T02:15:38;100700.25;;;16.05
48362;BMP280;34510;51.888;5.670;2023-05-10T02:20:43;100701.94;;;16.06
48362;BMP280;34510;51.888;5.670;2023-05-10T02:25:47;100717.03;;;16.17
48362;BMP280;34510;51.888;5.670;2023-05-10T02:30:50;100726.63;;;16.09
48362;BMP280;34510;51.888;5.670;2023-05-10T02:35:56;100735.41;;;16.25
48362;BMP280;34510;51.888;5.670;2023-05-10T02:41:09;100731.25;;;16.04
48362;BMP280;34510;51.888;5.670;2023-05-10T02:46:16;100719.72;;;15.59
48362;BMP280;34510;51.888;5.670;2023-05-10T02:51:19;100736.78;;;15.69
48362;BMP280;34510;51.888;5.670;2023-05-10T02:56:28;100724.22;;;15.60
48362;BMP280;34510;51.888;5.670;2023-05-10T03:01:32;100730.03;;;15.58
48362;BMP280;34510;51.888;5.670;2023-05-10T03:06:35;100727.31;;;15.70
48362;BMP280;34510;51.888;5.670;2023-05-10T03:16:45;100732.94;;;15.93
48362;BMP280;34510;51.888;5.670;2023-05-10T03:21:52;100742.03;;;15.77
48362;BMP280;34510;51.888;5.670;2023-05-10T03:26:56;100729.75;;;15.78
48362;BMP280;34510;51.888;5.670;2023-05-10T03:32:00;100748.22;;;15.79
48362;BMP280;34510;51.888;5.670;2023-05-10T03:37:04;100740.47;;;15.81
48362;BMP280;34510;51.888;5.670;2023-05-10T03:42:06;100736.41;;;15.65
48362;BMP280;34510;51.888;5.670;2023-05-10T03:47:08;100747.78;;;16.05
48362;BMP280;34510;51.888;5.670;2023-05-10T03:52:11;100746.06;;;15.81
48362;BMP280;34510;51.888;5.670;2023-05-10T03:57:14;100761.41;;;16.13
48362;BMP280;34510;51.888;5.670;2023-05-10T04:02:22;100752.66;;;15.98
48362;BMP280;34510;51.888;5.670;2023-05-10T04:07:31;100769.56;;;16.15
48362;BMP280;34510;51.888;5.670;2023-05-10T04:12:34;100771.50;;;16.14
48362;BMP280;34510;51.888;5.670;2023-05-10T04:17:36;100766.66;;;16.10
48362;BMP280;34510;51.888;5.670;2023-05-10T04:22:39;100762.88;;;16.16
48362;BMP280;34510;51.888;5.670;2023-05-10T04:27:41;100767.88;;;16.14
48362;BMP280;34510;51.888;5.670;2023-05-10T04:32:45;100764.94;;;16.09
48362;BMP280;34510;51.888;5.670;2023-05-10T04:37:47;100769.69;;;16.08
48362;BMP280;34510;51.888;5.670;2023-05-10T04:42:49;100775.81;;;16.29
48362;BMP280;34510;51.888;5.670;2023-05-10T04:47:52;100777.34;;;16.13
48362;BMP280;34510;51.888;5.670;2023-05-10T04:52:55;100774.94;;;16.16
48362;BMP280;34510;51.888;5.670;2023-05-10T04:57:59;100778.75;;;16.34
48362;BMP280;34510;51.888;5.670;2023-05-10T05:03:02;100772.59;;;16.13
48362;BMP280;34510;51.888;5.670;2023-05-10T05:08:04;100776.06;;;16.39
48362;BMP280;34510;51.888;5.670;2023-05-10T05:13:06;100786.91;;;16.35
48362;BMP280;34510;51.888;5.670;2023-05-10T05:18:11;100783.84;;;16.37
48362;BMP280;34510;51.888;5.670;2023-05-10T05:23:13;100783.25;;;16.46
48362;BMP280;34510;51.888;5.670;2023-05-10T05:28:15;100795.41;;;16.29
48362;BMP280;34510;51.888;5.670;2023-05-10T05:33:20;100801.59;;;16.31
48362;BMP280;34510;51.888;5.670;2023-05-10T05:38:22;100804.66;;;16.53
48362;BMP280;34510;51.888;5.670;2023-05-10T05:43:24;100815.00;;;16.64
48362;BMP280;34510;51.888;5.670;2023-05-10T05:48:27;100811.13;;;16.53
48362;BMP280;34510;51.888;5.670;2023-05-10T05:53:37;100817.69;;;16.59
48362;BMP280;34510;51.888;5.670;2023-05-10T05:58:39;100809.66;;;16.62
48362;BMP280;34510;51.888;5.670;2023-05-10T06:03:41;100813.78;;;16.48
48362;BMP280;34510;51.888;5.670;2023-05-10T06:08:44;100822.78;;;16.50
48362;BMP280;34510;51.888;5.670;2023-05-10T06:13:53;100824.16;;;17.06
48362;BMP280;34510;51.888;5.670;2023-05-10T06:18:55;100840.47;;;17.09
48362;BMP280;34510;51.888;5.670;2023-05-10T06:23:58;100844.25;;;16.79
48362;BMP280;34510;51.888;5.670;2023-05-10T06:29:00;100841.06;;;16.64
48362;BMP280;34510;51.888;5.670;2023-05-10T06:34:11;100857.72;;;16.59
48362;BMP280;34510;51.888;5.670;2023-05-10T06:39:13;100850.59;;;16.75
48362;BMP280;34510;51.888;5.670;2023-05-10T06:44:18;100860.94;;;16.86
48362;BMP280;34510;51.888;5.670;2023-05-10T06:49:20;100856.16;;;16.52
48362;BMP280;34510;51.888;5.670;2023-05-10T06:54:22;100853.94;;;16.42
48362;BMP280;34510;51.888;5.670;2023-05-10T06:59:25;100849.69;;;16.39
48362;BMP280;34510;51.888;5.670;2023-05-10T07:04:27;100862.22;;;16.37
48362;BMP280;34510;51.888;5.670;2023-05-10T07:09:29;100862.72;;;16.57
48362;BMP280;34510;51.888;5.670;2023-05-10T07:14:31;100868.69;;;16.61
48362;BMP280;34510;51.888;5.670;2023-05-10T07:19:36;100864.31;;;16.65
48362;BMP280;34510;51.888;5.670;2023-05-10T07:24:38;100889.31;;;17.13
48362;BMP280;34510;51.888;5.670;2023-05-10T07:29:40;100882.00;;;16.65
48362;BMP280;34510;51.888;5.670;2023-05-10T07:34:42;100894.41;;;17.39
48362;BMP280;34510;51.888;5.670;2023-05-10T07:39:44;100902.25;;;16.91
48362;BMP280;34510;51.888;5.670;2023-05-10T07:45:01;100905.13;;;17.42
48362;BMP280;34510;51.888;5.670;2023-05-10T07:50:03;100903.97;;;16.50
48362;BMP280;34510;51.888;5.670;2023-05-10T07:55:06;100911.09;;;16.76
48362;BMP280;34510;51.888;5.670;2023-05-10T08:00:12;100932.50;;;16.70
48362;BMP280;34510;51.888;5.670;2023-05-10T08:05:18;100947.19;;;17.19
48362;BMP280;34510;51.888;5.670;2023-05-10T08:10:20;100953.53;;;17.03
48362;BMP280;34510;51.888;5.670;2023-05-10T08:15:23;100947.41;;;17.41
48362;BMP280;34510;51.888;5.670;2023-05-10T08:20:24;100959.38;;;17.13
48362;BMP280;34510;51.888;5.670;2023-05-10T08:25:27;100986.66;;;17.53
48362;BMP280;34510;51.888;5.670;2023-05-10T08:30:30;100980.69;;;17.02
48362;BMP280;34510;51.888;5.670;2023-05-10T08:35:36;100976.78;;;17.15
48362;BMP280;34510;51.888;5.670;2023-05-10T08:40:42;100983.56;;;16.54
48362;BMP280;34510;51.888;5.670;2023-05-10T08:45:44;101002.03;;;16.73
48362;BMP280;34510;51.888;5.670;2023-05-10T08:50:53;101013.19;;;16.92
48362;BMP280;34510;51.888;5.670;2023-05-10T08:56:01;101025.22;;;17.69
48362;BMP280;34510;51.888;5.670;2023-05-10T09:01:07;101036.59;;;18.54
48362;BMP280;34510;51.888;5.670;2023-05-10T09:06:12;101042.44;;;18.93
48362;BMP280;34510;51.888;5.670;2023-05-10T09:11:15;101041.59;;;18.81
48362;BMP280;34510;51.888;5.670;2023-05-10T09:16:20;101044.00;;;18.60
48362;BMP280;34510;51.888;5.670;2023-05-10T09:21:23;101050.97;;;18.58
48362;BMP280;34510;51.888;5.670;2023-05-10T09:26:26;101073.81;;;18.10
48362;BMP280;34510;51.888;5.670;2023-05-10T09:31:48;101060.41;;;19.09
48362;BMP280;34510;51.888;5.670;2023-05-10T09:36:55;101073.78;;;19.18
48362;BMP280;34510;51.888;5.670;2023-05-10T09:41:59;101079.38;;;18.33
48362;BMP280;34510;51.888;5.670;2023-05-10T09:47:09;101077.09;;;18.58
48362;BMP280;34510;51.888;5.670;2023-05-10T09:52:14;101091.00;;;18.25
48362;BMP280;34510;51.888;5.670;2023-05-10T09:57:23;101084.88;;;18.40
48362;BMP280;34510;51.888;5.670;2023-05-10T10:02:28;101083.59;;;17.95
48362;BMP280;34510;51.888;5.670;2023-05-10T10:07:31;101093.41;;;18.45
48362;BMP280;34510;51.888;5.670;2023-05-10T10:12:33;101085.00;;;18.33
48362;BMP280;34510;51.888;5.670;2023-05-10T10:17:36;101093.47;;;18.21
48362;BMP280;34510;51.888;5.670;2023-05-10T10:22:40;101098.31;;;19.06
48362;BMP280;34510;51.888;5.670;2023-05-10T10:27:55;101102.41;;;19.15
48362;BMP280;34510;51.888;5.670;2023-05-10T10:38:55;101100.97;;;19.13
48362;BMP280;34510;51.888;5.670;2023-05-10T10:49:31;101093.09;;;20.15
48362;BMP280;34510;51.888;5.670;2023-05-10T10:54:34;101112.22;;;19.29
48362;BMP280;34510;51.888;5.670;2023-05-10T10:59:41;101098.13;;;19.75
48362;BMP280;34510;51.888;5.670;2023-05-10T11:04:44;101099.78;;;19.92
48362;BMP280;34510;51.888;5.670;2023-05-10T11:09:48;101102.81;;;19.69
48362;BMP280;34510;51.888;5.670;2023-05-10T11:14:50;101098.03;;;20.25
48362;BMP280;34510;51.888;5.670;2023-05-10T11:20:09;101109.34;;;19.91
48362;BMP280;34510;51.888;5.670;2023-05-10T11:25:13;101097.84;;;20.75
48362;BMP280;34510;51.888;5.670;2023-05-10T11:30:15;101094.25;;;21.61
48362;BMP280;34510;51.888;5.670;2023-05-10T11:35:24;101102.69;;;20.80
48362;BMP280;34510;51.888;5.670;2023-05-10T11:40:29;101114.78;;;20.53
48362;BMP280;34510;51.888;5.670;2023-05-10T11:45:32;101106.03;;;21.26
48362;BMP280;34510;51.888;5.670;2023-05-10T11:50:34;101112.91;;;20.04
48362;BMP280;34510;51.888;5.670;2023-05-10T11:55:36;101107.44;;;21.23
48362;BMP280;34510;51.888;5.670;2023-05-10T12:00:38;101108.56;;;21.00
48362;BMP280;34510;51.888;5.670;2023-05-10T12:05:40;101113.22;;;20.24
48362;BMP280;34510;51.888;5.670;2023-05-10T12:10:43;101114.53;;;20.00
48362;BMP280;34510;51.888;5.670;2023-05-10T12:15:47;101114.56;;;20.82
48362;BMP280;34510;51.888;5.670;2023-05-10T12:20:52;101108.84;;;21.26
48362;BMP280;34510;51.888;5.670;2023-05-10T12:26:02;101111.66;;;20.77
48362;BMP280;34510;51.888;5.670;2023-05-10T12:31:05;101121.66;;;20.63
48362;BMP280;34510;51.888;5.670;2023-05-10T12:36:09;101126.03;;;19.31
48362;BMP280;34510;51.888;5.670;2023-05-10T12:41:14;101130.97;;;19.24
48362;BMP280;34510;51.888;5.670;2023-05-10T12:46:17;101127.72;;;18.87
48362;BMP280;34510;51.888;5.670;2023-05-10T12:51:19;101127.66;;;18.70
48362;BMP280;34510;51.888;5.670;2023-05-10T12:56:24;101129.81;;;18.80
48362;BMP280;34510;51.888;5.670;2023-05-10T13:01:26;101137.38;;;18.91
48362;BMP280;34510;51.888;5.670;2023-05-10T13:06:28;101137.94;;;18.64
48362;BMP280;34510;51.888;5.670;2023-05-10T13:11:30;101137.94;;;18.64
48362;BMP280;34510;51.888;5.670;2023-05-10T13:16:32;101147.88;;;18.84
48362;BMP280;34510;51.888;5.670;2023-05-10T13:21:40;101148.59;;;18.91
48362;BMP280;34510;51.888;5.670;2023-05-10T13:26:45;101151.31;;;18.86
48362;BMP280;34510;51.888;5.670;2023-05-10T13:31:49;101155.63;;;19.05
48362;BMP280;34510;51.888;5.670;2023-05-10T13:36:54;101163.09;;;18.99
48362;BMP280;34510;51.888;5.670;2023-05-10T13:42:00;101163.00;;;18.83
48362;BMP280;34510;51.888;5.670;2023-05-10T13:47:02;101166.72;;;19.12
48362;BMP280;34510;51.888;5.670;2023-05-10T13:52:04;101156.81;;;19.09
48362;BMP280;34510;51.888;5.670;2023-05-10T13:57:08;101163.78;;;18.78
48362;BMP280;34510;51.888;5.670;2023-05-10T14:02:10;101163.16;;;18.88
48362;BMP280;34510;51.888;5.670;2023-05-10T14:07:14;101148.50;;;18.74
48362;BMP280;34510;51.888;5.670;2023-05-10T14:12:16;101143.34;;;18.08
48362;BMP280;34510;51.888;5.670;2023-05-10T14:17:18;101119.81;;;17.85
48362;BMP280;34510;51.888;5.670;2023-05-10T14:22:20;101129.47;;;17.89
48362;BMP280;34510;51.888;5.670;2023-05-10T14:27:24;101138.84;;;18.06
48362;BMP280;34510;51.888;5.670;2023-05-10T14:32:26;101148.97;;;17.84
48362;BMP280;34510;51.888;5.670;2023-05-10T14:37:29;101148.38;;;18.81
48362;BMP280;34510;51.888;5.670;2023-05-10T14:42:31;101160.25;;;18.59
48362;BMP280;34510;51.888;5.670;2023-05-10T14:47:33;101159.03;;;18.55
48362;BMP280;34510;51.888;5.670;2023-05-10T14:52:35;101159.31;;;18.42
48362;BMP280;34510;51.888;5.670;2023-05-10T14:57:40;101156.63;;;18.99
48362;BMP280;34510;51.888;5.670;2023-05-10T15:02:44;101162.91;;;19.35
48362;BMP280;34510;51.888;5.670;2023-05-10T15:07:49;101164.75;;;18.72
48362;BMP280;34510;51.888;5.670;2023-05-10T15:12:51;101172.31;;;19.69
48362;BMP280;34510;51.888;5.670;2023-05-10T15:17:53;101186.84;;;19.20
48362;BMP280;34510;51.888;5.670;2023-05-10T15:22:57;101184.56;;;19.79
48362;BMP280;34510;51.888;5.670;2023-05-10T15:27:59;101196.28;;;19.14
48362;BMP280;34510;51.888;5.670;2023-05-10T15:33:01;101196.47;;;18.96
48362;BMP280;34510;51.888;5.670;2023-05-10T15:38:14;101190.41;;;18.76
48362;BMP280;34510;51.888;5.670;2023-05-10T15:43:16;101197.78;;;18.30
48362;BMP280;34510;51.888;5.670;2023-05-10T15:48:18;101199.38;;;19.01
48362;BMP280;34510;51.888;5.670;2023-05-10T15:53:20;101215.84;;;19.09
48362;BMP280;34510;51.888;5.670;2023-05-10T15:58:25;101215.63;;;18.24
48362;BMP280;34510;51.888;5.670;2023-05-10T16:03:27;101213.97;;;18.86
48362;BMP280;34510;51.888;5.670;2023-05-10T16:08:29;101207.50;;;19.54
48362;BMP280;34510;51.888;5.670;2023-05-10T16:13:31;101211.16;;;19.55
48362;BMP280;34510;51.888;5.670;2023-05-10T16:18:34;101208.13;;;19.16
48362;BMP280;34510;51.888;5.670;2023-05-10T16:23:36;101214.84;;;19.44
48362;BMP280;34510;51.888;5.670;2023-05-10T16:28:38;101212.44;;;19.07
48362;BMP280;34510;51.888;5.670;2023-05-10T16:33:43;101217.41;;;18.88
48362;BMP280;34510;51.888;5.670;2023-05-10T16:38:45;101218.25;;;18.89
48362;BMP280;34510;51.888;5.670;2023-05-10T16:43:47;101217.50;;;18.82
48362;BMP280;34510;51.888;5.670;2023-05-10T16:48:49;101221.19;;;18.59
48362;BMP280;34510;51.888;5.670;2023-05-10T16:53:52;101221.31;;;18.76
48362;BMP280;34510;51.888;5.670;2023-05-10T16:58:54;101230.59;;;19.16
48362;BMP280;34510;51.888;5.670;2023-05-10T17:03:56;101223.63;;;19.59
48362;BMP280;34510;51.888;5.670;2023-05-10T17:08:58;101236.81;;;19.47
48362;BMP280;34510;51.888;5.670;2023-05-10T17:14:01;101243.84;;;19.04
48362;BMP280;34510;51.888;5.670;2023-05-10T17:19:03;101239.03;;;18.88
48362;BMP280;34510;51.888;5.670;2023-05-10T17:24:06;101244.56;;;19.11
48362;BMP280;34510;51.888;5.670;2023-05-10T17:29:10;101254.66;;;18.37
48362;BMP280;34510;51.888;5.670;2023-05-10T17:34:12;101257.34;;;18.79
48362;BMP280;34510;51.888;5.670;2023-05-10T17:39:14;101255.75;;;18.59
48362;BMP280;34510;51.888;5.670;2023-05-10T17:44:16;101260.53;;;18.47
48362;BMP280;34510;51.888;5.670;2023-05-10T17:49:24;101256.63;;;18.25
48362;BMP280;34510;51.888;5.670;2023-05-10T17:54:34;101271.84;;;18.05
48362;BMP280;34510;51.888;5.670;2023-05-10T17:59:36;101264.38;;;17.99
48362;BMP280;34510;51.888;5.670;2023-05-10T18:04:39;101266.88;;;18.54
48362;BMP280;34510;51.888;5.670;2023-05-10T18:09:41;101261.47;;;18.18
48362;BMP280;34510;51.888;5.670;2023-05-10T18:14:44;101271.69;;;18.00
48362;BMP280;34510;51.888;5.670;2023-05-10T18:19:46;101262.25;;;18.25
48362;BMP280;34510;51.888;5.670;2023-05-10T18:24:48;101260.59;;;18.05
48362;BMP280;34510;51.888;5.670;2023-05-10T18:29:50;101264.19;;;18.48
48362;BMP280;34510;51.888;5.670;2023-05-10T18:34:52;101262.69;;;17.98
48362;BMP280;34510;51.888;5.670;2023-05-10T18:39:56;101275.16;;;18.61
48362;BMP280;34510;51.888;5.670;2023-05-10T18:44:58;101264.31;;;18.64
48362;BMP280;34510;51.888;5.670;2023-05-10T18:50:02;101264.44;;;18.69
48362;BMP280;34510;51.888;5.670;2023-05-10T18:55:07;101267.13;;;18.64
48362;BMP280;34510;51.888;5.670;2023-05-10T19:00:11;101270.78;;;18.77
48362;BMP280;34510;51.888;5.670;2023-05-10T19:05:13;101276.63;;;18.40
48362;BMP280;34510;51.888;5.670;2023-05-10T19:10:16;101265.38;;;18.17
48362;BMP280;34510;51.888;5.670;2023-05-10T19:15:17;101261.06;;;17.91
48362;BMP280;34510;51.888;5.670;2023-05-10T19:20:23;101266.94;;;18.01
48362;BMP280;34510;51.888;5.670;2023-05-10T19:25:25;101280.38;;;18.11
48362;BMP280;34510;51.888;5.670;2023-05-10T19:30:29;101279.34;;;17.82
48362;BMP280;34510;51.888;5.670;2023-05-10T19:35:32;101277.16;;;17.84
48362;BMP280;34510;51.888;5.670;2023-05-10T19:40:34;101284.31;;;17.50
48362;BMP280;34510;51.888;5.670;2023-05-10T19:45:36;101288.59;;;17.70
48362;BMP280;34510;51.888;5.670;2023-05-10T19:50:41;101280.50;;;17.62
48362;BMP280;34510;51.888;5.670;2023-05-10T19:55:43;101287.66;;;17.58
48362;BMP280;34510;51.888;5.670;2023-05-10T20:00:45;101289.66;;;17.39
48362;BMP280;34510;51.888;5.670;2023-05-10T20:05:47;101293.88;;;17.30
48362;BMP280;34510;51.888;5.670;2023-05-10T20:10:49;101297.09;;;17.46
48362;BMP280;34510;51.888;5.670;2023-05-10T20:15:56;101303.66;;;17.39
48362;BMP280;34510;51.888;5.670;2023-05-10T20:20:59;101291.69;;;17.32
48362;BMP280;34510;51.888;5.670;2023-05-10T20:26:01;101290.44;;;17.28
48362;BMP280;34510;51.888;5.670;2023-05-10T20:31:03;101292.03;;;17.06
48362;BMP280;34510;51.888;5.670;2023-05-10T20:36:05;101300.34;;;17.31
48362;BMP280;34510;51.888;5.670;2023-05-10T20:41:10;101302.19;;;17.37
48362;BMP280;34510;51.888;5.670;2023-05-10T20:46:12;101301.56;;;17.35
48362;BMP280;34510;51.888;5.670;2023-05-10T20:51:14;101308.59;;;17.26
48362;BMP280;34510;51.888;5.670;2023-05-10T20:56:17;101308.91;;;17.18
48362;BMP280;34510;51.888;5.670;2023-05-10T21:01:19;101301.81;;;16.78
48362;BMP280;34510;51.888;5.670;2023-05-10T21:06:24;101299.78;;;16.67
48362;BMP280;34510;51.888;5.670;2023-05-10T21:11:26;101296.31;;;16.72
48362;BMP280;34510;51.888;5.670;2023-05-10T21:16:28;101301.81;;;16.78
48362;BMP280;34510;51.888;5.670;2023-05-10T21:21:30;101300.34;;;16.76
48362;BMP280;34510;51.888;5.670;2023-05-10T21:26:34;101303.69;;;16.66
48362;BMP280;34510;51.888;5.670;2023-05-10T21:31:36;101298.19;;;16.53
48362;BMP280;34510;51.888;5.670;2023-05-10T21:36:38;101284.50;;;16.45
48362;BMP280;34510;51.888;5.670;2023-05-10T21:41:40;101293.06;;;16.50
48362;BMP280;34510;51.888;5.670;2023-05-10T21:46:42;101293.16;;;16.62
48362;BMP280;34510;51.888;5.670;2023-05-10T21:51:44;101289.41;;;16.49
48362;BMP280;34510;51.888;5.670;2023-05-10T21:56:46;101299.97;;;16.72
48362;BMP280;34510;51.888;5.670;2023-05-10T22:01:49;101306.19;;;16.74
48362;BMP280;34510;51.888;5.670;2023-05-10T22:06:51;101308.97;;;16.74
48362;BMP280;34510;51.888;5.670;2023-05-10T22:11:54;101313.19;;;16.84
48362;BMP280;34510;51.888;5.670;2023-05-10T22:17:05;101308.34;;;16.72
48362;BMP280;34510;51.888;5.670;2023-05-10T22:22:07;101312.72;;;16.68
48362;BMP280;34510;51.888;5.670;2023-05-10T22:27:09;101304.31;;;16.68
48362;BMP280;34510;51.888;5.670;2023-05-10T22:32:11;101309.28;;;16.66
48362;BMP280;34510;51.888;5.670;2023-05-10T22:37:13;101309.72;;;16.63
48362;BMP280;34510;51.888;5.670;2023-05-10T22:42:20;101307.38;;;16.60
48362;BMP280;34510;51.888;5.670;2023-05-10T22:47:28;101306.75;;;16.58
48362;BMP280;34510;51.888;5.670;2023-05-10T22:52:31;101305.56;;;16.47
48362;BMP280;34510;51.888;5.670;2023-05-10T22:57:33;101309.22;;;16.48
48362;BMP280;34510;51.888;5.670;2023-05-10T23:02:35;101305.56;;;16.47
48362;BMP280;34510;51.888;5.670;2023-05-10T23:07:37;101303.47;;;16.43
48362;BMP280;34510;51.888;5.670;2023-05-10T23:12:39;101319.97;;;16.51
48362;BMP280;34510;51.888;5.670;2023-05-10T23:17:41;101308.56;;;16.28
48362;BMP280;34510;51.888;5.670;2023-05-10T23:22:43;101316.00;;;16.40
48362;BMP280;34510;51.888;5.670;2023-05-10T23:27:45;101316.94;;;16.53
48362;BMP280;34510;51.888;5.670;2023-05-10T23:32:47;101330.41;;;16.62
48362;BMP280;34510;51.888;5.670;2023-05-10T23:37:49;101328.94;;;16.60
48362;BMP280;34510;51.888;5.670;2023-05-10T23:42:51;101327.91;;;16.54
48362;BMP280;34510;51.888;5.670;2023-05-10T23:47:53;101322.28;;;16.36
48362;BMP280;34510;51.888;5.670;2023-05-10T23:52:55;101310.66;;;16.57
48362;BMP280;34510;51.888;5.670;2023-05-10T23:57:57;101320.69;;;16.65
